PSA CRJ9 at Charlotte on Jul 5th 2024, wing tip strike on landing

Last Update: July 8, 2024 / 21:03:02 GMT/Zulu time

Bookmark this article
Incident Facts

Date of incident
Jul 5, 2024

Classification
Incident

Flight number
AA-5144

Aircraft Registration
N591NN

ICAO Type Designator
CRJ9

Airport ICAO Code
KCLT

A PSA Airlines Canadair CRJ-900 on behalf of American Airlines, registration N591NN performing flight AA-5144 from Harrisburg,PA to Charlotte,NC (USA), was on final approach to Charlotte's runway 18L when the crew initiated a go around but struck the runway with the left wing. The aircraft climbed out, positioned for another approach and landed on runway 18L without further incident about 10 minutes later.

The FAA reported: "AIRCRAFT EXECUTED A GO AROUND AND STRUCK RUNWAY WITH LEFT WING. AIRCRAFT WAS RESEQUENCED AND LANDED.", the damage was "UNKNOWN".

The aircraft remained on the ground for about 67 hours (2 days 19 hours) before returning to service.



Metars:
KCLT 052052Z 24010KT 10SM FEW065 FEW100 BKN250 38/20 A2985 RMK AO2 SLP109 CB DSNT W-NW TCU DSNT E-SE T03780200 56013=
KCLT 051952Z 21010G21KT 10SM BKN065TCU BKN100 BKN250 37/21 A2985 RMK AO2 SLP112 CB DSNT SE TCU N-E-SE AND NW T03720206=
KCLT 051852Z 20010G16KT 10SM BKN060TCU BKN250 37/21 A2986 RMK AO2 SLP112 CB DSNT N-NE TCU ALQDS T03720211=
KCLT 051752Z 23007G15KT 200V260 10SM BKN055TCU BKN250 36/21 A2989 RMK AO2 SLP123 TCU ALQDS AND DSNT N T03610206 10367 20272 58013=
KCLT 051652Z 25008KT 10SM SCT050 BKN150 BKN250 35/23 A2990 RMK AO2 SLP129 TCU DSNT NW-NE T03500228=
KCLT 051552Z 24007KT 10SM FEW040 FEW150 FEW250 33/23 A2992 RMK AO2 SLP135 T03330228=
KCLT 051452Z VRB04KT 10SM FEW035 FEW250 32/23 A2992 RMK AO2 SLP136 T03170228 58004=
KCLT 051352Z VRB05KT 10SM FEW150 FEW250 30/23 A2993 RMK AO2 SLP138 T03000228=
Aircraft Registration Data
Registration mark
N591NN
Country of Registration
United States
Date of Registration
Hiejlcclihfjik Subscribe to unlock
Manufacturer
BOMBARDIER INC
Aircraft Model / Type
CL-600-2D24
Number of Seats
ICAO Aircraft Type
CRJ9
Year of Manufacture
Serial Number
Aircraft Address / Mode S Code (HEX)
Engine Count
Engine Manufacturer
Engine Model
Engine Type
Pounds of Thrust
Main Owner
lnjcAndfApqlpgjeihd bhdhqfkgbhggllqningbikmpm pdqnhp Akeb chcllAqcgcfq A mkhAn Subscribe to unlock
Incident Facts

Date of incident
Jul 5, 2024

Classification
Incident

Flight number
AA-5144

Aircraft Registration
N591NN

ICAO Type Designator
CRJ9

Airport ICAO Code
KCLT

This article is published under license from Avherald.com. © of text by Avherald.com.
Article source

You can read 2 more free articles without a subscription.

Subscribe now and continue reading without any limits!

Are you a subscriber? Login
Subscribe

Read unlimited articles and receive our daily update briefing. Gain better insights into what is happening in commercial aviation safety.

Send tip

Support AeroInside by sending a small tip amount.

Related articles

Newest articles

Subscribe today

Are you researching aviation incidents? Get access to AeroInside Insights, unlimited read access and receive the daily newsletter.

Pick your plan and subscribe

Partner

Blockaviation logo

A new way to document and demonstrate airworthiness compliance and aircraft value. Find out more.

ELITE Logo

ELITE Simulation Solutions is a leading global provider of Flight Simulation Training Devices, IFR training software as well as flight controls and related services. Find out more.

Blue Altitude Logo

Your regulation partner, specialists in aviation safety and compliance; providing training, auditing, and consultancy services. Find out more.

AeroInside Blog
Popular aircraft
Airbus A320
Boeing 737-800
Boeing 737-800 MAX
Popular airlines
American Airlines
United
Delta
Air Canada
Lufthansa
British Airways